createdAt,value
2019-02-28T00:02:56.078Z,5.90
2019-02-28T00:09:00.907Z,6.40
2019-02-28T00:15:08.652Z,5.60
2019-02-28T00:21:13.198Z,6.70
2019-02-28T00:27:20.966Z,6.63
2019-02-28T00:33:24.050Z,5.73
2019-02-28T00:39:31.369Z,6.40
2019-02-28T00:45:37.178Z,6.30
2019-02-28T00:51:41.660Z,6.70
2019-02-28T00:57:46.258Z,6.37
2019-02-28T01:03:50.804Z,7.13
2019-02-28T01:09:55.376Z,7.10
2019-02-28T01:15:59.968Z,7.77
2019-02-28T01:22:04.589Z,7.73
2019-02-28T01:28:09.151Z,7.00
2019-02-28T01:34:13.704Z,6.43
2019-02-28T01:40:18.271Z,6.73
2019-02-28T01:46:22.922Z,7.40
2019-02-28T01:52:27.513Z,6.43
2019-02-28T01:58:32.224Z,6.70
2019-02-28T02:04:36.845Z,6.80
2019-02-28T02:10:41.480Z,6.60
2019-02-28T02:16:46.051Z,7.33
2019-02-28T02:22:50.612Z,6.37
2019-02-28T02:28:55.166Z,6.70
2019-02-28T02:35:06.106Z,7.03
2019-02-28T02:41:06.276Z,8.20
2019-02-28T02:47:10.940Z,7.70
2019-02-28T02:53:15.504Z,6.97
2019-02-28T02:59:20.065Z,7.53
2019-02-28T03:05:24.663Z,9.13
2019-02-28T03:11:29.362Z,8.50
2019-02-28T03:17:33.924Z,8.23
2019-02-28T03:23:40.432Z,9.60
2019-02-28T03:29:44.905Z,9.50
2019-02-28T03:35:49.497Z,7.97
2019-02-28T03:41:54.262Z,9.60
2019-02-28T03:47:59.852Z,10.50
2019-02-28T03:54:04.823Z,11.43
2019-02-28T04:00:32.613Z,11.07
2019-02-28T04:06:32.269Z,11.93
2019-02-28T04:12:44.867Z,12.37
2019-02-28T04:18:45.894Z,11.50
2019-02-28T04:24:49.506Z,11.70
2019-02-28T04:30:54.090Z,12.60
2019-02-28T04:36:58.740Z,13.10
2019-02-28T04:43:03.296Z,12.77
2019-02-28T04:49:07.861Z,12.10
2019-02-28T04:55:12.865Z,13.40
2019-02-28T05:01:17.492Z,14.17
2019-02-28T05:07:22.167Z,12.90
2019-02-28T05:13:26.768Z,15.50
2019-02-28T05:19:32.279Z,14.67
2019-02-28T05:25:37.882Z,14.93
2019-02-28T05:31:42.455Z,14.93
2019-02-28T05:37:48.454Z,15.27
2019-02-28T05:43:53.152Z,16.27
2019-02-28T05:49:59.461Z,15.10
2019-02-28T05:56:04.078Z,15.53
2019-02-28T06:02:08.646Z,16.63
2019-02-28T06:08:13.217Z,14.97
2019-02-28T06:14:17.771Z,13.20
2019-02-28T06:20:22.343Z,16.53
2019-02-28T06:26:26.911Z,18.50
2019-02-28T06:32:31.933Z,18.77
2019-02-28T06:38:36.471Z,18.30
2019-02-28T06:44:41.043Z,20.43
2019-02-28T06:50:45.714Z,21.20
2019-02-28T06:56:50.270Z,17.00
2019-02-28T07:02:54.850Z,18.10
2019-02-28T07:09:02.385Z,19.60
2019-02-28T07:15:07.474Z,20.60
2019-02-28T07:21:12.032Z,22.27
2019-02-28T07:27:16.750Z,21.93
2019-02-28T07:33:21.351Z,23.00
2019-02-28T07:39:26.147Z,22.80
2019-02-28T07:45:33.091Z,24.67
2019-02-28T07:51:37.131Z,24.23
2019-02-28T07:57:41.732Z,34.30
2019-02-28T08:03:46.295Z,27.17
2019-02-28T08:09:50.868Z,24.37
2019-02-28T08:15:56.881Z,21.90
2019-02-28T08:22:02.412Z,21.23
2019-02-28T08:28:06.995Z,23.70
2019-02-28T08:34:11.688Z,25.10
2019-02-28T08:40:22.856Z,28.67
2019-02-28T08:46:27.485Z,27.53
2019-02-28T08:52:32.168Z,27.47
2019-02-28T08:58:37.624Z,27.10
2019-02-28T09:04:44.879Z,27.17
2019-02-28T09:10:49.399Z,27.10
2019-02-28T09:16:54.039Z,29.23
2019-02-28T09:23:02.238Z,29.90
2019-02-28T09:29:05.083Z,30.30
2019-02-28T09:35:13.844Z,32.17
2019-02-28T09:41:16.208Z,33.70
2019-02-28T09:47:23.363Z,33.23
2019-02-28T09:53:27.320Z,34.83
2019-02-28T09:59:37.501Z,34.30
2019-02-28T10:05:39.051Z,34.00
2019-02-28T10:11:44.696Z,34.33
2019-02-28T10:17:49.605Z,33.70
2019-02-28T10:23:57.060Z,34.23
2019-02-28T10:30:00.672Z,35.00
2019-02-28T10:36:05.493Z,34.87
2019-02-28T10:42:10.203Z,38.57
2019-02-28T10:48:14.801Z,39.70
2019-02-28T10:54:19.430Z,37.13
2019-02-28T11:00:33.651Z,37.27
2019-02-28T11:06:41.508Z,35.67
2019-02-28T11:12:46.213Z,36.47
2019-02-28T11:18:50.931Z,35.80
2019-02-28T11:25:00.478Z,35.43
2019-02-28T11:31:02.407Z,34.70
2019-02-28T11:37:08.960Z,34.57
2019-02-28T11:43:14.414Z,32.37
2019-02-28T11:49:19.026Z,32.20
2019-02-28T11:55:24.090Z,32.43
2019-02-28T12:01:28.820Z,32.20
2019-02-28T12:07:34.876Z,32.37
2019-02-28T12:13:39.913Z,31.43
2019-02-28T12:19:47.656Z,31.33
2019-02-28T12:25:51.221Z,30.67
2019-02-28T12:31:55.799Z,30.40
2019-02-28T12:38:01.102Z,30.10
2019-02-28T12:44:05.825Z,31.50
2019-02-28T12:50:14.020Z,29.33
2019-02-28T12:56:18.583Z,31.40
2019-02-28T13:02:23.136Z,31.73
2019-02-28T13:08:29.603Z,32.50
2019-02-28T13:14:36.799Z,28.77
2019-02-28T13:20:41.228Z,32.17
2019-02-28T13:26:45.876Z,33.70
2019-02-28T13:32:50.520Z,31.53
2019-02-28T13:38:55.889Z,31.03
2019-02-28T13:45:01.462Z,32.27
2019-02-28T13:51:08.578Z,32.50
2019-02-28T13:57:13.454Z,28.53
2019-02-28T14:03:18.030Z,26.97
2019-02-28T14:09:23.106Z,32.47
2019-02-28T14:15:38.206Z,32.23
2019-02-28T14:21:42.933Z,30.70
2019-02-28T14:27:48.485Z,30.70
2019-02-28T14:33:54.493Z,31.47
2019-02-28T14:40:00.011Z,30.90
2019-02-28T14:46:05.289Z,31.30
2019-02-28T14:52:09.999Z,36.43
2019-02-28T14:58:14.581Z,42.20
2019-02-28T15:04:19.144Z,44.10
2019-02-28T15:10:26.888Z,47.70
2019-02-28T15:16:32.051Z,46.87
2019-02-28T15:22:36.622Z,51.70
2019-02-28T15:28:41.204Z,52.50
2019-02-28T15:34:45.833Z,47.60
2019-02-28T15:40:50.641Z,46.67
2019-02-28T15:46:55.769Z,48.17
2019-02-28T15:53:01.207Z,45.20
2019-02-28T15:59:05.908Z,47.77
2019-02-28T16:05:10.967Z,48.47
2019-02-28T16:11:15.686Z,49.17
2019-02-28T16:17:20.328Z,44.30
2019-02-28T16:23:27.531Z,46.30
2019-02-28T16:29:31.536Z,48.10
2019-02-28T16:35:36.262Z,44.40
2019-02-28T16:41:40.894Z,50.43
2019-02-28T16:47:45.496Z,48.70
2019-02-28T16:53:50.081Z,46.73
2019-02-28T16:59:54.682Z,46.13
2019-02-28T17:06:01.619Z,50.50
2019-02-28T17:12:07.581Z,54.83
2019-02-28T17:18:13.892Z,52.50
2019-02-28T17:24:18.470Z,49.10
2019-02-28T17:30:24.824Z,49.70
2019-02-28T17:36:29.895Z,49.23
2019-02-28T17:42:34.609Z,55.40
2019-02-28T17:49:15.625Z,54.67
2019-02-28T17:55:45.613Z,52.43
2019-02-28T18:02:32.764Z,54.47
2019-02-28T18:09:00.042Z,52.67
2019-02-28T18:15:30.142Z,53.77
2019-02-28T18:21:57.479Z,53.53
2019-02-28T18:28:27.759Z,54.87
2019-02-28T18:34:32.849Z,60.53
2019-02-28T18:40:37.511Z,60.20
2019-02-28T18:46:42.092Z,57.53
2019-02-28T18:52:46.666Z,53.33
2019-02-28T18:58:51.249Z,47.13
2019-02-28T19:04:55.980Z,48.97
2019-02-28T19:11:00.722Z,43.80
2019-02-28T19:17:05.428Z,39.77
2019-02-28T19:23:10.075Z,49.70
2019-02-28T19:29:16.170Z,55.40
2019-02-28T19:35:20.879Z,38.07
2019-02-28T19:41:25.530Z,38.17
2019-02-28T19:47:30.523Z,36.40
2019-02-28T19:53:35.182Z,33.03
2019-02-28T19:59:39.739Z,34.80
2019-02-28T20:05:44.482Z,29.50
2019-02-28T20:11:49.121Z,34.90
2019-02-28T20:17:54.037Z,35.40
2019-02-28T20:23:59.003Z,36.20
2019-02-28T20:30:05.621Z,32.97
2019-02-28T20:36:10.297Z,35.90
2019-02-28T20:42:14.913Z,39.50
2019-02-28T20:48:19.771Z,40.70
2019-02-28T20:54:24.331Z,38.93
2019-02-28T21:00:29.224Z,41.50
2019-02-28T21:06:35.400Z,43.57
2019-02-28T21:12:40.131Z,43.40
2019-02-28T21:18:44.866Z,43.50
2019-02-28T21:24:49.533Z,46.97
2019-02-28T21:30:54.126Z,45.37
2019-02-28T21:36:58.906Z,40.70
2019-02-28T21:43:03.753Z,39.53
2019-02-28T21:49:08.388Z,39.00
2019-02-28T21:55:17.917Z,38.40
2019-02-28T22:01:22.501Z,38.10
2019-02-28T22:07:27.886Z,37.33
2019-02-28T22:13:32.456Z,38.50
2019-02-28T22:19:37.405Z,36.63
2019-02-28T22:25:42.015Z,32.83
2019-02-28T22:31:57.143Z,31.57
2019-02-28T22:38:01.842Z,30.97
2019-02-28T22:44:06.574Z,30.60
2019-02-28T22:50:11.381Z,29.90
2019-02-28T22:56:15.970Z,31.53
2019-02-28T23:02:21.174Z,30.70
2019-02-28T23:08:25.805Z,31.37
2019-02-28T23:14:30.472Z,29.67
2019-02-28T23:20:35.069Z,24.93
2019-02-28T23:27:12.229Z,22.53
2019-02-28T23:33:17.146Z,21.90
2019-02-28T23:39:21.738Z,20.87
2019-02-28T23:45:26.385Z,21.40
2019-02-28T23:51:31.108Z,22.57
2019-02-28T23:57:35.755Z,20.10
